Terminal Aerodrome Forecast
Issued by NWS

Home | Current Version | Previous Version | Text Only | Print | Product List | Glossary On
Versions: 1 2 3 4 5 6 7 8 9 10 11 12 13 14 15 16 17 18 19 20 21 22 23 24 25 26 27 28 29 30 31 32 33 34 35 36 37 38 39 40 41 42 43 44 45 46 47 48 49
000
FTAK31 PANC 272326
TAFAIL
TAF
PAIL 272326Z 2800/2824 02007KT P6SM SCT025 BKN045
     FM281000 08007KT 6SM -SHSN SCT025 BKN035=

USA.gov is the U.S. government's official web portal to all federal, state and local government web resources and services.